Карточка аэропорта UAKK

Внимание!
Информация на этой странице в стадии наполнения.
Если вы не увидели какой-то информации, или заметили неточность - пожалуйста сообщите нам!
Спасибо!
Команда RU-STAFF
Название аэропортаКараганда
Название аэропорта (англ.)Karaganda
Превышение1768 ft. (538.9 m.)
Координаты49°40.302', 73°20.118'
Высота перехода10000ft
Эшелон переходаFL120, QNH<733:FL130
Коды ответчика0630-0637, 7220-7227
Зона ОрВДАстана РПИ (UACN)
Данные METARUAKK 152030Z 24002MPS 2200 BR MIFG NSC 14/14 Q1013 NOSIG RMK QFE713/0951
Проноз погоды (TAF)UAKK 151939Z 1520/1618 VRB02MPS 2000 BR BKN011 BKN050 TX28/1609Z TN11/1601Z TEMPO 1520/1602 0400 FG VV002 FM160400 35006MPS 9999 SCT030 BKN100 TEMPO 1604/1614 03007MPS SCT030CB BECMG 1614/1616 VRB02MPS TEMPO 1614/1618 3100 BR BKN011
NOTAMshow/hide NOTAM
AWOS   TABLE

Информация о ВПП

ВПП Длина ВПП (м.) Покрытие Курс ВПП Частота ILS
053601Железобетон50109.9
233601Железобетон230111.7

Диспетчерские позиции




Спутниковое изображение